createdAt,value
2023-04-02T00:00:21.590Z,6.10
2023-04-02T00:02:57.656Z,6.10
2023-04-02T00:05:52.215Z,6.10
2023-04-02T00:08:29.406Z,6.10
2023-04-02T00:11:00.912Z,6.10
2023-04-02T00:13:35.529Z,6.00
2023-04-02T00:16:05.514Z,6.00
2023-04-02T00:18:35.210Z,5.90
2023-04-02T00:21:11.722Z,5.80
2023-04-02T00:23:41.933Z,5.80
2023-04-02T00:26:24.356Z,5.70
2023-04-02T00:28:53.328Z,5.60
2023-04-02T00:31:21.888Z,5.70
2023-04-02T00:33:50.948Z,5.60
2023-04-02T00:36:21.980Z,5.60
2023-04-02T00:38:50.661Z,5.70
2023-04-02T00:41:27.203Z,5.50
2023-04-02T00:43:57.914Z,5.50
2023-04-02T00:46:32.231Z,5.50
2023-04-02T00:49:08.105Z,5.40
2023-04-02T00:51:39.939Z,5.50
2023-04-02T00:54:15.720Z,5.40
2023-04-02T00:56:48.293Z,5.50
2023-04-02T00:59:20.909Z,5.40
2023-04-02T01:01:54.407Z,5.40
2023-04-02T01:04:34.671Z,5.40
2023-04-02T01:07:09.310Z,5.50
2023-04-02T01:09:54.854Z,5.40
2023-04-02T01:12:36.890Z,5.40
2023-04-02T01:15:12.054Z,5.40
2023-04-02T01:18:06.917Z,5.30
2023-04-02T01:21:14.127Z,5.30
2023-04-02T01:23:53.914Z,5.20
2023-04-02T01:26:36.107Z,5.20
2023-04-02T01:29:11.525Z,5.40
2023-04-02T01:31:40.401Z,5.20
2023-04-02T01:34:12.292Z,5.10
2023-04-02T01:36:48.568Z,5.20
2023-04-02T01:39:30.748Z,5.10
2023-04-02T01:42:07.506Z,5.10
2023-04-02T01:44:41.741Z,5.10
2023-04-02T01:47:13.075Z,5.00
2023-04-02T01:49:42.905Z,5.00
2023-04-02T01:52:17.801Z,5.00
2023-04-02T01:54:47.742Z,5.00
2023-04-02T01:57:16.964Z,5.00
2023-04-02T01:59:46.949Z,5.30
2023-04-02T02:02:16.036Z,5.00
2023-04-02T02:04:45.087Z,5.00
2023-04-02T02:07:17.440Z,5.00
2023-04-02T02:09:45.951Z,5.00
2023-04-02T02:12:15.340Z,4.90
2023-04-02T02:14:49.644Z,4.90
2023-04-02T02:17:21.593Z,4.90
2023-04-02T02:19:52.400Z,4.90
2023-04-02T02:22:27.457Z,4.80
2023-04-02T02:24:56.854Z,4.80
2023-04-02T02:27:54.046Z,4.80
2023-04-02T02:30:28.034Z,4.80
2023-04-02T02:33:03.199Z,4.80
2023-04-02T02:35:36.226Z,4.80
2023-04-02T02:38:26.549Z,4.80
2023-04-02T02:40:59.033Z,4.80
2023-04-02T02:43:28.296Z,4.80
2023-04-02T02:45:59.461Z,4.70
2023-04-02T02:48:36.657Z,4.80
2023-04-02T02:51:10.410Z,4.70
2023-04-02T02:53:49.874Z,4.70
2023-04-02T02:56:18.548Z,4.60
2023-04-02T02:58:46.637Z,4.60
2023-04-02T03:01:16.798Z,4.70
2023-04-02T03:03:45.668Z,4.50
2023-04-02T03:06:20.696Z,4.60
2023-04-02T03:08:54.940Z,4.40
2023-04-02T03:11:30.255Z,4.40
2023-04-02T03:14:08.114Z,4.50
2023-04-02T03:16:42.856Z,4.30
2023-04-02T03:19:24.800Z,4.30
2023-04-02T03:21:56.251Z,4.30
2023-04-02T03:24:33.354Z,4.30
2023-04-02T03:27:07.322Z,4.30
2023-04-02T03:29:38.163Z,4.40
2023-04-02T03:32:13.678Z,4.20
2023-04-02T03:34:45.698Z,4.20
2023-04-02T03:37:18.750Z,4.20
2023-04-02T03:39:51.811Z,4.10
2023-04-02T03:42:22.887Z,4.00
2023-04-02T03:44:54.220Z,4.00
2023-04-02T03:47:33.364Z,4.10
2023-04-02T03:50:07.379Z,3.90
2023-04-02T03:52:37.729Z,3.90
2023-04-02T03:55:15.872Z,3.90
2023-04-02T03:57:52.718Z,3.90
2023-04-02T04:00:27.283Z,3.80
2023-04-02T04:03:00.016Z,3.80
2023-04-02T04:05:31.275Z,3.80
2023-04-02T04:08:03.895Z,3.80
2023-04-02T04:10:32.733Z,3.80
2023-04-02T04:13:07.318Z,3.90
2023-04-02T04:15:41.449Z,3.80
2023-04-02T04:18:19.871Z,4.00
2023-04-02T04:20:56.361Z,3.90
2023-04-02T04:23:30.271Z,3.80
2023-04-02T04:26:09.560Z,3.90
2023-04-02T04:28:43.866Z,3.80
2023-04-02T04:31:20.948Z,3.80
2023-04-02T04:33:55.872Z,3.90
2023-04-02T04:36:29.071Z,3.80
2023-04-02T04:39:00.484Z,3.70
2023-04-02T04:41:32.874Z,3.70
2023-04-02T04:44:07.778Z,3.70
2023-04-02T04:46:41.288Z,3.70
2023-04-02T04:49:15.686Z,3.70
2023-04-02T04:51:49.365Z,3.70
2023-04-02T04:54:18.614Z,3.70
2023-04-02T04:56:49.299Z,3.70
2023-04-02T04:59:22.451Z,3.70
2023-04-02T05:01:56.831Z,3.60
2023-04-02T05:04:31.993Z,3.80
2023-04-02T05:07:07.324Z,3.60
2023-04-02T05:09:39.560Z,3.60
2023-04-02T05:12:17.423Z,3.60
2023-04-02T05:14:51.738Z,3.80
2023-04-02T05:17:24.420Z,3.60
2023-04-02T05:20:00.198Z,3.50
2023-04-02T05:22:39.427Z,3.50
2023-04-02T05:25:18.341Z,3.50
2023-04-02T05:27:52.700Z,3.50
2023-04-02T05:30:47.120Z,3.50
2023-04-02T05:33:25.682Z,3.50
2023-04-02T05:36:00.461Z,3.40
2023-04-02T05:38:31.224Z,3.60
2023-04-02T05:41:05.527Z,3.30
2023-04-02T05:43:35.591Z,3.50
2023-04-02T05:46:15.010Z,3.40
2023-04-02T05:48:45.579Z,3.40
2023-04-02T05:51:21.940Z,3.70
2023-04-02T05:53:54.767Z,3.50
2023-04-02T05:56:27.162Z,3.50
2023-04-02T05:58:59.420Z,3.60
2023-04-02T06:01:37.451Z,3.60
2023-04-02T06:04:14.406Z,3.60
2023-04-02T06:06:52.794Z,3.90
2023-04-02T06:09:28.805Z,3.50
2023-04-02T06:12:05.905Z,3.40
2023-04-02T06:14:34.023Z,3.50
2023-04-02T06:17:02.152Z,3.80
2023-04-02T06:19:34.097Z,3.70
2023-04-02T06:22:17.116Z,3.60
2023-04-02T06:24:48.023Z,3.50
2023-04-02T06:27:22.656Z,3.50
2023-04-02T06:29:55.657Z,3.50
2023-04-02T06:32:27.006Z,3.50
2023-04-02T06:34:55.788Z,3.50
2023-04-02T06:37:31.429Z,3.50
2023-04-02T06:40:00.664Z,3.50
2023-04-02T06:42:32.141Z,3.50
2023-04-02T06:45:00.570Z,3.50
2023-04-02T06:47:35.001Z,3.50
2023-04-02T06:50:09.717Z,3.50
2023-04-02T06:52:45.891Z,3.50
2023-04-02T06:55:28.460Z,3.60
2023-04-02T06:57:56.580Z,3.50
2023-04-02T07:00:29.830Z,3.60
2023-04-02T07:03:00.808Z,3.60
2023-04-02T07:05:29.714Z,3.70
2023-04-02T07:07:59.209Z,3.70
2023-04-02T07:10:27.314Z,3.70
2023-04-02T07:12:55.349Z,3.80
2023-04-02T07:15:25.507Z,3.80
2023-04-02T07:17:54.829Z,3.90
2023-04-02T07:20:29.021Z,3.90
2023-04-02T07:22:58.566Z,4.00
2023-04-02T07:25:27.650Z,4.20
2023-04-02T07:27:56.322Z,4.10
2023-04-02T07:30:24.653Z,4.10
2023-04-02T07:32:52.844Z,4.20
2023-04-02T07:35:21.165Z,4.20
2023-04-02T07:37:49.314Z,4.20
2023-04-02T07:40:22.956Z,4.10
2023-04-02T07:42:51.661Z,4.20
2023-04-02T07:45:19.888Z,4.10
2023-04-02T07:47:47.909Z,4.10
2023-04-02T07:50:16.129Z,4.10
2023-04-02T07:52:44.505Z,4.20
2023-04-02T07:55:13.849Z,4.10
2023-04-02T07:57:49.618Z,4.20
2023-04-02T08:00:18.557Z,4.30
2023-04-02T08:02:46.982Z,4.40
2023-04-02T08:05:16.363Z,4.40
2023-04-02T08:07:44.550Z,4.40
2023-04-02T08:10:13.875Z,4.50
2023-04-02T08:12:43.281Z,4.40
2023-04-02T08:15:15.293Z,4.50
2023-04-02T08:17:43.747Z,4.60
2023-04-02T08:20:18.059Z,4.60
2023-04-02T08:22:46.376Z,4.60
2023-04-02T08:25:14.600Z,4.60
2023-04-02T08:27:44.278Z,4.50
2023-04-02T08:30:15.026Z,4.50
2023-04-02T08:32:43.199Z,4.40
2023-04-02T08:35:14.717Z,4.40
2023-04-02T08:37:43.193Z,4.50
2023-04-02T08:40:22.080Z,4.60
2023-04-02T08:43:14.137Z,4.70
2023-04-02T08:45:52.931Z,4.80
2023-04-02T08:48:21.519Z,4.70
2023-04-02T08:50:51.698Z,4.80
2023-04-02T08:53:22.738Z,4.90
2023-04-02T08:55:59.859Z,4.90
2023-04-02T08:58:39.017Z,5.00
2023-04-02T09:01:09.057Z,4.90
2023-04-02T09:03:41.480Z,5.10
2023-04-02T09:06:16.432Z,5.30
2023-04-02T09:08:46.343Z,5.20
2023-04-02T09:11:21.671Z,5.20
2023-04-02T09:13:57.832Z,5.40
2023-04-02T09:16:39.003Z,5.50
2023-04-02T09:19:17.487Z,5.50
2023-04-02T09:21:49.014Z,5.70
2023-04-02T09:24:17.171Z,6.00
2023-04-02T09:26:45.666Z,6.00
2023-04-02T09:29:40.381Z,6.00
2023-04-02T09:32:28.449Z,6.10
2023-04-02T09:35:24.741Z,6.10
2023-04-02T09:38:17.135Z,6.20
2023-04-02T09:40:49.941Z,6.10
2023-04-02T09:43:20.045Z,6.10
2023-04-02T09:46:00.486Z,6.10
2023-04-02T09:48:31.430Z,6.20
2023-04-02T09:51:15.088Z,6.10
2023-04-02T09:53:44.845Z,6.20
2023-04-02T09:56:21.670Z,6.10
2023-04-02T09:59:05.355Z,6.20
2023-04-02T10:01:37.375Z,6.00
2023-04-02T10:04:07.761Z,5.90
2023-04-02T10:06:36.280Z,5.90
2023-04-02T10:09:27.306Z,5.80
2023-04-02T10:11:55.845Z,5.90
2023-04-02T10:14:28.795Z,5.90
2023-04-02T10:17:01.201Z,6.00
2023-04-02T10:19:33.637Z,6.00
2023-04-02T10:22:05.297Z,6.30
2023-04-02T10:24:33.425Z,6.40
2023-04-02T10:27:11.127Z,7.00
2023-04-02T10:30:04.017Z,7.50
2023-04-02T10:32:38.664Z,7.80
2023-04-02T10:35:16.985Z,8.70
2023-04-02T10:38:04.381Z,8.90
2023-04-02T10:40:37.721Z,8.90
2023-04-02T10:43:35.683Z,8.60
2023-04-02T10:46:10.003Z,8.50
2023-04-02T10:48:48.105Z,8.30
2023-04-02T10:51:29.847Z,7.70
2023-04-02T10:54:03.786Z,7.30
2023-04-02T10:56:43.978Z,7.40
2023-04-02T10:59:20.695Z,7.30
2023-04-02T11:01:51.674Z,7.50
2023-04-02T11:04:28.263Z,7.50
2023-04-02T11:07:11.147Z,8.80
2023-04-02T11:09:46.089Z,9.40
2023-04-02T11:12:22.596Z,9.10
2023-04-02T11:14:51.893Z,8.80
2023-04-02T11:17:21.034Z,9.00
2023-04-02T11:19:50.524Z,9.50
2023-04-02T11:22:21.061Z,9.50
2023-04-02T11:24:51.147Z,9.40
2023-04-02T11:27:26.593Z,9.70
2023-04-02T11:30:02.572Z,9.60
2023-04-02T11:32:39.469Z,9.60
2023-04-02T11:35:41.047Z,9.20
2023-04-02T11:38:46.480Z,9.00
2023-04-02T11:41:14.809Z,8.60
2023-04-02T11:43:53.316Z,8.40
2023-04-02T11:46:51.860Z,8.60
2023-04-02T11:49:57.309Z,8.30
2023-04-02T11:52:30.667Z,8.30
2023-04-02T11:55:02.232Z,8.60
2023-04-02T11:57:46.598Z,8.90
2023-04-02T12:00:29.566Z,9.70
2023-04-02T12:03:20.277Z,10.60
2023-04-02T12:05:58.621Z,10.90
2023-04-02T12:08:47.479Z,11.30
2023-04-02T12:11:32.678Z,11.70
2023-04-02T12:14:01.722Z,10.80
2023-04-02T12:16:35.181Z,10.30
2023-04-02T12:19:09.080Z,9.90
2023-04-02T12:21:38.853Z,9.80
2023-04-02T12:24:20.800Z,9.60
2023-04-02T12:26:49.226Z,9.60
2023-04-02T12:29:23.275Z,9.50
2023-04-02T12:31:51.987Z,9.30
2023-04-02T12:34:22.137Z,9.20
2023-04-02T12:36:55.148Z,9.30
2023-04-02T12:39:27.333Z,9.10
2023-04-02T12:41:56.586Z,8.70
2023-04-02T12:44:27.103Z,8.80
2023-04-02T12:46:56.639Z,8.90
2023-04-02T12:49:35.494Z,9.00
2023-04-02T12:52:05.636Z,8.90
2023-04-02T12:54:39.177Z,8.80
2023-04-02T12:57:39.499Z,8.90
2023-04-02T13:00:31.034Z,8.90
2023-04-02T13:03:16.300Z,8.60
2023-04-02T13:05:50.091Z,8.70
2023-04-02T13:08:20.374Z,8.80
2023-04-02T13:10:54.994Z,9.20
2023-04-02T13:13:30.571Z,9.60
2023-04-02T13:16:03.895Z,9.70
2023-04-02T13:18:34.416Z,10.10
2023-04-02T13:21:04.063Z,10.10
2023-04-02T13:23:38.760Z,10.30
2023-04-02T13:26:23.156Z,10.20
2023-04-02T13:29:02.057Z,10.20
2023-04-02T13:31:31.304Z,10.30
2023-04-02T13:33:59.780Z,9.80
2023-04-02T13:36:29.476Z,10.20
2023-04-02T13:38:58.036Z,10.60
2023-04-02T13:41:29.430Z,10.80
2023-04-02T13:44:00.888Z,10.90
2023-04-02T13:46:31.080Z,10.80
2023-04-02T13:48:59.698Z,10.60
2023-04-02T13:51:37.314Z,10.30
2023-04-02T13:54:10.013Z,9.60
2023-04-02T13:56:39.558Z,9.80
2023-04-02T13:59:08.164Z,9.20
2023-04-02T14:01:37.461Z,9.30
2023-04-02T14:04:06.371Z,9.30
2023-04-02T14:07:03.167Z,9.10
2023-04-02T14:09:44.135Z,9.20
2023-04-02T14:12:22.571Z,9.30
2023-04-02T14:15:07.764Z,9.50
2023-04-02T14:17:49.948Z,9.80
2023-04-02T14:20:31.973Z,9.70
2023-04-02T14:23:20.617Z,9.30
2023-04-02T14:25:58.726Z,9.20
2023-04-02T14:28:40.498Z,9.10
2023-04-02T14:31:16.374Z,9.00
2023-04-02T14:33:53.846Z,8.90
2023-04-02T14:36:29.968Z,8.80
2023-04-02T14:39:04.258Z,8.70
2023-04-02T14:41:40.662Z,8.60
2023-04-02T14:44:12.828Z,8.70
2023-04-02T14:46:41.728Z,8.80
2023-04-02T14:49:22.575Z,8.90
2023-04-02T14:51:54.885Z,8.90
2023-04-02T14:54:32.110Z,8.80
2023-04-02T14:57:07.449Z,9.00
2023-04-02T14:59:43.486Z,9.10
2023-04-02T15:02:19.793Z,9.00
2023-04-02T15:04:53.889Z,9.20
2023-04-02T15:07:26.725Z,9.60
2023-04-02T15:10:07.208Z,9.90
2023-04-02T15:12:37.991Z,10.00
2023-04-02T15:15:17.906Z,10.20
2023-04-02T15:17:48.660Z,9.90
2023-04-02T15:20:20.409Z,9.90
2023-04-02T15:22:58.199Z,9.80
2023-04-02T15:25:34.597Z,9.80
2023-04-02T15:28:16.063Z,10.10
2023-04-02T15:30:47.000Z,9.90
2023-04-02T15:33:44.597Z,10.00
2023-04-02T15:36:40.122Z,10.10
2023-04-02T15:39:28.887Z,10.00
2023-04-02T15:42:07.176Z,10.00
2023-04-02T15:44:37.817Z,9.80
2023-04-02T15:47:18.388Z,9.70
2023-04-02T15:49:53.418Z,9.70
2023-04-02T15:52:30.363Z,9.80
2023-04-02T15:55:10.967Z,9.70
2023-04-02T15:57:58.214Z,9.70
2023-04-02T16:00:30.524Z,10.00
2023-04-02T16:03:23.146Z,10.10
2023-04-02T16:06:09.101Z,10.10
2023-04-02T16:08:50.453Z,10.10
2023-04-02T16:11:18.567Z,10.10
2023-04-02T16:13:47.471Z,10.00
2023-04-02T16:16:20.689Z,9.90
2023-04-02T16:18:56.780Z,9.60
2023-04-02T16:21:27.758Z,9.30
2023-04-02T16:23:55.923Z,9.10
2023-04-02T16:26:35.111Z,9.10
2023-04-02T16:29:16.122Z,9.10
2023-04-02T16:31:51.290Z,9.10
2023-04-02T16:34:31.521Z,9.20
2023-04-02T16:37:05.099Z,9.20
2023-04-02T16:39:40.777Z,9.00
2023-04-02T16:42:21.265Z,8.60
2023-04-02T16:45:01.486Z,8.30
2023-04-02T16:47:56.837Z,8.10
2023-04-02T16:50:38.012Z,7.90
2023-04-02T16:53:19.565Z,7.70
2023-04-02T16:55:58.471Z,7.60
2023-04-02T16:58:35.845Z,7.50
2023-04-02T17:01:11.974Z,7.40
2023-04-02T17:04:02.209Z,7.40
2023-04-02T17:06:43.379Z,7.40
2023-04-02T17:09:19.268Z,7.50
2023-04-02T17:11:51.485Z,7.60
2023-04-02T17:14:27.236Z,7.70
2023-04-02T17:17:01.979Z,7.80
2023-04-02T17:19:31.616Z,7.70
2023-04-02T17:22:03.775Z,7.70
2023-04-02T17:24:36.672Z,7.60
2023-04-02T17:27:12.138Z,7.40
2023-04-02T17:29:42.993Z,7.30
2023-04-02T17:32:19.071Z,7.20
2023-04-02T17:34:47.264Z,7.10
2023-04-02T17:37:26.292Z,7.00
2023-04-02T17:40:03.135Z,7.00
2023-04-02T17:42:41.543Z,6.90
2023-04-02T17:45:16.360Z,6.80
2023-04-02T17:47:52.084Z,6.80
2023-04-02T17:50:36.194Z,6.80
2023-04-02T17:53:15.550Z,6.70
2023-04-02T17:55:54.729Z,6.60
2023-04-02T17:58:39.532Z,6.60
2023-04-02T18:01:13.340Z,6.50
2023-04-02T18:03:51.574Z,6.30
2023-04-02T18:06:22.902Z,6.20
2023-04-02T18:09:10.344Z,6.10
2023-04-02T18:11:50.081Z,5.90
2023-04-02T18:14:36.694Z,5.70
2023-04-02T18:17:11.730Z,5.60
2023-04-02T18:19:55.246Z,5.40
2023-04-02T18:22:34.264Z,5.30
2023-04-02T18:25:21.974Z,5.10
2023-04-02T18:28:01.327Z,5.00
2023-04-02T18:30:34.373Z,5.00
2023-04-02T18:33:29.742Z,4.90
2023-04-02T18:36:05.247Z,4.90
2023-04-02T18:38:43.950Z,4.90
2023-04-02T18:41:28.348Z,5.00
2023-04-02T18:44:11.213Z,5.10
2023-04-02T18:46:46.198Z,5.10
2023-04-02T18:49:29.428Z,5.10
2023-04-02T18:52:02.028Z,5.10
2023-04-02T18:54:35.628Z,5.10
2023-04-02T18:57:12.476Z,5.00
2023-04-02T18:59:45.820Z,5.00
2023-04-02T19:02:38.568Z,5.00
2023-04-02T19:05:13.698Z,4.90
2023-04-02T19:07:46.598Z,4.80
2023-04-02T19:10:27.730Z,4.70
2023-04-02T19:12:57.173Z,4.60
2023-04-02T19:15:31.509Z,4.50
2023-04-02T19:18:08.934Z,4.40
2023-04-02T19:20:45.123Z,4.30
2023-04-02T19:23:29.826Z,4.20
2023-04-02T19:26:02.682Z,4.20
2023-04-02T19:28:40.747Z,4.10
2023-04-02T19:31:34.632Z,4.10
2023-04-02T19:34:13.721Z,4.10
2023-04-02T19:36:47.822Z,4.20
2023-04-02T19:39:35.837Z,4.20
2023-04-02T19:42:13.992Z,4.20
2023-04-02T19:44:48.453Z,4.30
2023-04-02T19:47:18.609Z,4.30
2023-04-02T19:49:46.869Z,4.30
2023-04-02T19:52:15.008Z,4.10
2023-04-02T19:54:43.100Z,4.30
2023-04-02T19:57:15.142Z,4.20
2023-04-02T19:59:44.632Z,4.20
2023-04-02T20:02:12.920Z,4.10
2023-04-02T20:04:41.011Z,4.10
2023-04-02T20:07:11.737Z,4.00
2023-04-02T20:09:40.371Z,3.90
2023-04-02T20:12:09.721Z,3.80
2023-04-02T20:14:38.476Z,3.70
2023-04-02T20:17:08.334Z,3.70
2023-04-02T20:19:37.975Z,3.60
2023-04-02T20:22:09.079Z,3.50
2023-04-02T20:24:37.751Z,3.50
2023-04-02T20:27:06.537Z,3.40
2023-04-02T20:29:35.291Z,3.40
2023-04-02T20:32:04.249Z,3.30
2023-04-02T20:34:34.065Z,3.30
2023-04-02T20:37:02.616Z,3.30
2023-04-02T20:39:34.158Z,3.30
2023-04-02T20:42:03.944Z,3.30
2023-04-02T20:44:32.058Z,3.30
2023-04-02T20:47:00.823Z,3.30
2023-04-02T20:49:29.036Z,3.20
2023-04-02T20:51:58.939Z,3.20
2023-04-02T20:54:28.857Z,3.10
2023-04-02T20:56:57.507Z,3.00
2023-04-02T20:59:25.933Z,2.90
2023-04-02T21:01:54.142Z,2.90
2023-04-02T21:04:22.828Z,2.80
2023-04-02T21:06:57.131Z,2.80
2023-04-02T21:09:27.358Z,2.70
2023-04-02T21:11:55.550Z,2.60
2023-04-02T21:14:24.443Z,2.60
2023-04-02T21:16:52.679Z,2.50
2023-04-02T21:19:20.944Z,2.50
2023-04-02T21:21:49.285Z,2.40
2023-04-02T21:24:17.452Z,2.30
2023-04-02T21:26:47.564Z,2.30
2023-04-02T21:29:15.926Z,2.20
2023-04-02T21:31:44.090Z,2.30
2023-04-02T21:34:15.285Z,2.20
2023-04-02T21:36:45.270Z,2.20
2023-04-02T21:39:18.377Z,2.10
2023-04-02T21:41:50.075Z,2.00
2023-04-02T21:44:20.698Z,2.00
2023-04-02T21:46:51.879Z,2.10
2023-04-02T21:49:23.148Z,1.90
2023-04-02T21:51:52.466Z,1.90
2023-04-02T21:54:20.584Z,1.90
2023-04-02T21:56:50.771Z,1.80
2023-04-02T21:59:19.380Z,1.80
2023-04-02T22:01:49.351Z,1.80
2023-04-02T22:04:19.091Z,1.70
2023-04-02T22:06:47.580Z,1.60
2023-04-02T22:09:18.894Z,1.60
2023-04-02T22:11:50.870Z,1.60
2023-04-02T22:14:19.269Z,1.50
2023-04-02T22:16:47.440Z,1.50
2023-04-02T22:19:17.420Z,1.50
2023-04-02T22:21:46.137Z,1.50
2023-04-02T22:24:16.156Z,1.70
2023-04-02T22:26:44.377Z,1.50
2023-04-02T22:29:14.046Z,1.50
2023-04-02T22:31:42.112Z,1.50
2023-04-02T22:34:10.386Z,1.50
2023-04-02T22:36:38.662Z,1.40
2023-04-02T22:39:10.295Z,1.50
2023-04-02T22:41:38.537Z,1.40
2023-04-02T22:44:06.915Z,1.40
2023-04-02T22:46:36.439Z,1.40
2023-04-02T22:49:04.560Z,1.40
2023-04-02T22:51:32.662Z,1.40
2023-04-02T22:54:01.275Z,1.40
2023-04-02T22:56:32.989Z,1.50
2023-04-02T22:59:01.664Z,1.30
2023-04-02T23:01:34.656Z,1.30
2023-04-02T23:04:05.571Z,1.30
2023-04-02T23:06:35.644Z,1.30
2023-04-02T23:09:04.187Z,1.30
2023-04-02T23:11:33.072Z,1.40
2023-04-02T23:14:01.263Z,1.30
2023-04-02T23:16:30.569Z,1.40
2023-04-02T23:18:59.458Z,1.60
2023-04-02T23:21:29.387Z,1.40
2023-04-02T23:23:57.571Z,1.50
2023-04-02T23:26:29.740Z,1.40
2023-04-02T23:28:58.683Z,1.50
2023-04-02T23:31:27.510Z,1.50
2023-04-02T23:33:56.043Z,1.50
2023-04-02T23:36:26.649Z,1.50
2023-04-02T23:38:59.872Z,1.80
2023-04-02T23:41:28.993Z,1.70
2023-04-02T23:43:58.402Z,1.70
2023-04-02T23:46:27.527Z,1.50
2023-04-02T23:48:56.905Z,1.70
2023-04-02T23:51:26.753Z,1.70
2023-04-02T23:53:57.022Z,1.70
2023-04-02T23:56:26.104Z,1.60
2023-04-02T23:58:54.441Z,1.60
